Latest Weather Observations for Evans Head

IDN60801

Issued at 1:35 pm EDT Monday 24 November 2014 (issued every 30 minutes, with the page automatically refreshed every 10 minutes)

About weather observations | Map of weather stations | Latest weather observations for NSW | Other Formats
Station Details ID: 058212 Name: EVANS HEAD RAAF BOMBING RANGE AWS Lat: -29.18 Lon: 153.40 Height: 62.5 m
Data from the previous 72 hours. | See also: Recent months at Evans Head
Date/Time
EDT
Temp
°C
App
Temp
°C
Dew
Point
Rel
Hum
%
Delta-T
°C
Wind Press
QNH
hPa
Press
MSL
hPa
Rain
since 9 am
mm
Dir
 
Spd
km/h
Gust
km/h
Spd
kts
Gust
kts
24/01:30pm 30.2 29.9 19.6 53 7.0 NNE 20 32 11 17 1013.3 1013.0 0.0
24/01:00pm 31.1 32.0 21.6 57 6.4 NNE 19 28 10 15 1013.5 1013.2 0.0
24/12:30pm 29.3 30.0 20.5 59 5.8 NNE 17 24 9 13 1014.1 1013.8 0.0
24/12:00pm 31.4 32.2 21.3 55 6.8 NE 19 28 10 15 1014.5 1014.2 0.0
24/11:30am 32.7 34.3 21.5 51 7.6 NNE 15 26 8 14 1014.7 1014.4 0.0
24/11:00am 31.7 32.6 20.9 52 7.2 NNE 17 24 9 13 1015.1 1014.8 0.0
24/10:30am 31.6 33.1 21.2 54 7.0 NNE 15 22 8 12 1015.1 1014.8 0.0
24/10:00am 30.5 32.8 21.3 58 6.2 N 11 19 6 10 1015.6 1015.3 0.0
24/09:30am 29.6 30.8 20.7 58 5.9 N 15 26 8 14 1015.8 1015.5 0.0
24/09:00am 28.3 30.1 21.1 65 4.8 N 13 20 7 11 1016.0 1015.7 0.0
24/08:30am 26.9 28.5 21.4 72 3.7 N 15 24 8 13 1016.3 1016.0 0.0
24/08:00am 25.9 28.7 23.0 84 2.0 N 13 20 7 11 1016.3 1016.0 0.0
24/07:30am 23.9 26.8 23.2 96 0.5 N 13 19 7 10 1016.1 1015.8 0.0
24/07:00am 22.1 23.9 21.8 98 0.2 NNE 15 20 8 11 1015.7 1015.4 0.0
24/06:30am 20.9 21.7 20.7 99 0.1 NNE 17 24 9 13 1015.6 1015.3 0.0
24/06:00am 20.5 21.9 20.3 99 0.1 NNE 13 17 7 9 1015.5 1015.2 0.0
24/05:30am 20.5 21.9 20.3 99 0.1 NNE 13 19 7 10 1015.2 1014.9 0.0
24/05:00am 20.7 22.6 20.5 99 0.1 NNE 11 17 6 9 1014.9 1014.6 0.0
24/04:30am 20.7 22.9 20.5 99 0.1 N 9 15 5 8 1014.9 1014.6 0.0
24/04:00am 21.2 22.6 21.0 99 0.1 NNE 15 19 8 10 1014.7 1014.4 0.0
24/03:30am 21.2 22.9 21.0 99 0.1 N 13 20 7 11 1014.6 1014.3 0.0
24/03:00am 21.4 22.9 21.2 99 0.1 N 15 24 8 13 1014.1 1013.8 0.0
24/02:30am 21.6 22.2 21.3 98 0.2 NNE 20 30 11 16 1014.2 1013.9 0.0
24/02:00am 21.8 23.0 21.5 98 0.2 NNE 17 24 9 13 1014.3 1014.0 0.0
24/01:30am 22.1 23.5 21.8 98 0.2 NNE 17 26 9 14 1014.4 1014.1 0.0
24/01:00am 22.3 23.4 22.0 98 0.2 N 19 28 10 15 1014.9 1014.6 0.0
24/12:30am 22.3 23.3 21.8 97 0.3 N 19 28 10 15 1014.9 1014.6 0.0
24/12:00am 22.2 23.0 21.7 97 0.3 N 20 32 11 17 1015.2 1014.9 0.0
 
Date/Time
EDT
Temp
°C
App
Temp
°C
Dew
Point
Rel
Hum
%
Delta-T
°C
Wind Press
QNH
hPa
Press
MSL
hPa
Rain
since 9 am
mm
Dir
 
Spd
km/h
Gust
km/h
Spd
kts
Gust
kts
23/11:30pm 22.2 23.9 21.7 97 0.3 N 15 28 8 15 1015.3 1015.0 0.0
23/11:00pm 22.2 23.9 21.0 93 0.8 N 13 19 7 10 1015.0 1014.7 0.0
23/10:30pm 22.5 22.7 20.6 89 1.2 N 20 28 11 15 1014.5 1014.2 0.0
23/10:00pm 22.3 22.4 20.4 89 1.2 N 20 30 11 16 1014.4 1014.1 0.0
23/09:30pm 22.2 23.4 19.9 87 1.5 NNE 13 17 7 9 1014.9 1014.6 0.0
23/09:00pm 22.7 24.5 19.5 82 2.0 NNE 9 13 5 7 1014.9 1014.6 0.0
23/08:30pm 23.0 23.5 19.2 79 2.4 N 15 24 8 13 1014.4 1014.1 0.0
23/08:00pm 23.2 22.7 19.1 78 2.6 N 20 28 11 15 1013.9 1013.6 0.0
23/07:30pm 23.5 23.0 19.2 77 2.7 N 20 28 11 15 1013.3 1013.0 0.0
23/07:00pm 24.0 24.7 19.7 77 2.8 N 15 20 8 11 1012.5 1012.3 0.0
23/06:30pm 24.0 24.0 19.7 77 2.8 N 19 28 10 15 1012.0 1011.8 0.0
23/06:00pm 24.3 24.1 19.8 76 2.9 N 20 30 11 16 1011.5 1011.3 0.0
23/05:30pm 24.8 23.9 19.8 74 3.2 N 24 35 13 19 1011.4 1011.2 0.0
23/05:00pm 25.4 24.7 20.2 73 3.4 NNE 24 33 13 18 1011.6 1011.4 0.0
23/04:30pm 25.8 26.2 20.6 73 3.4 NNE 19 28 10 15 1012.1 1011.9 0.0
23/04:00pm 25.9 25.4 20.7 73 3.4 NNE 24 39 13 21 1012.0 1011.8 0.0
23/03:30pm 26.3 25.4 20.6 71 3.7 NNE 26 39 14 21 1012.0 1011.8 0.0
23/03:00pm 27.4 27.0 21.0 68 4.2 NNE 24 37 13 20 1012.4 1012.2 0.0
23/02:30pm 29.2 29.7 20.9 61 5.5 NNE 19 26 10 14 1012.4 1012.2 0.0
23/02:00pm 31.9 31.5 21.7 54 6.9 NNE 26 41 14 22 1012.7 1012.5 0.0
23/01:34pm 32.5 31.9 22.0 54 7.2 NNE 28 46 15 25 1012.9 1012.7 0.0
23/01:30pm 32.7 33.1 22.5 55 7.0 NNE 24 39 13 21 1013.0 1012.8 0.0
23/01:00pm 31.5 30.9 21.9 56 6.5 NNE 28 39 15 21 1013.6 1013.3 0.0
23/12:30pm 31.6 32.7 22.0 56 6.5 NNE 19 35 10 19 1014.4 1014.1 0.0
23/12:00pm 31.6 32.7 22.0 56 6.5 NNE 19 35 10 19 1014.9 1014.6 0.0
23/11:30am 32.0 33.3 22.4 57 6.6 N 19 28 10 15 1015.1 1014.8 0.0
23/11:00am 32.0 33.5 22.7 58 6.4 N 19 30 10 16 1015.3 1015.0 0.0
23/10:30am 31.2 32.6 21.9 57 6.3 NNE 17 28 9 15 1015.8 1015.5 0.0
23/10:00am 30.7 32.9 22.6 62 5.5 N 15 24 8 13 1016.0 1015.7 0.0
23/09:30am 29.7 31.7 22.2 64 5.1 N 15 26 8 14 1016.1 1015.8 0.0
23/09:00am 29.2 33.0 24.1 74 3.5 N 11 22 6 12 1016.2 1015.9 0.0
23/08:30am 27.2 30.0 23.7 81 2.4 NNE 15 24 8 13 1015.9 1015.6 0.0
23/08:00am 26.0 29.6 24.4 91 1.1 N 13 20 7 11 1015.9 1015.6 0.0
23/07:30am 24.0 26.4 23.7 98 0.2 N 17 26 9 14 1015.7 1015.4 0.0
23/07:00am 22.3 25.4 22.1 99 0.1 NNE 9 13 5 7 1015.7 1015.4 0.0
23/06:30am 21.7 24.2 21.7 100 0.0 N 11 15 6 8 1015.6 1015.3 0.0
23/06:00am 21.3 23.2 21.3 100 0.0 N 13 17 7 9 1015.3 1015.0 0.0
23/05:30am 21.1 22.9 21.1 100 0.0 N 13 17 7 9 1014.6 1014.3 0.0
23/05:00am 21.1 23.3 21.1 100 0.0 N 11 13 6 7 1014.3 1014.0 0.0
23/04:30am 21.0 22.7 21.0 100 0.0 N 13 17 7 9 1013.8 1013.5 0.0
23/04:00am 21.2 22.9 21.0 99 0.1 N 13 15 7 8 1013.6 1013.3 0.0
23/03:30am 21.4 23.6 21.2 99 0.1 N 11 15 6 8 1013.6 1013.3 0.0
23/03:00am 21.4 23.2 21.2 99 0.1 NNE 13 15 7 8 1013.6 1013.3 0.0
23/02:30am 21.5 24.2 21.3 99 0.1 N 9 13 5 7 1013.9 1013.6 0.0
23/02:00am 21.8 24.6 21.6 99 0.1 NNE 9 11 5 6 1014.0 1013.7 0.0
23/01:30am 22.0 26.6 21.8 99 0.1 CALM 0 0 0 0 1014.3 1014.0 0.0
23/01:00am 21.7 26.2 21.5 99 0.1 CALM 0 0 0 0 1014.3 1014.0 0.0
23/12:30am 21.9 26.1 21.7 99 0.1 SW 2 6 1 3 1014.7 1014.4 0.0
23/12:00am 22.0 25.5 21.8 99 0.1 SSW 6 7 3 4 1014.7 1014.4 0.0
 
Date/Time
EDT
Temp
°C
App
Temp
°C
Dew
Point
Rel
Hum
%
Delta-T
°C
Wind Press
QNH
hPa
Press
MSL
hPa
Rain
since 9 am
mm
Dir
 
Spd
km/h
Gust
km/h
Spd
kts
Gust
kts
22/11:30pm 21.9 25.3 21.6 98 0.2 S 6 7 3 4 1014.7 1014.4 0.0
22/11:00pm 22.2 25.5 21.9 98 0.2 SSW 7 11 4 6 1014.5 1014.2 0.0
22/10:30pm 22.4 25.9 22.1 98 0.2 WSW 7 9 4 5 1014.4 1014.1 0.0
22/10:00pm 22.5 26.2 22.2 98 0.2 W 6 9 3 5 1014.0 1013.7 0.0
22/09:30pm 22.5 26.0 22.2 98 0.2 NNW 7 13 4 7 1013.7 1013.4 0.0
22/09:00pm 22.5 25.6 22.2 98 0.2 N 9 15 5 8 1013.3 1013.0 0.0
22/08:30pm 22.8 25.2 22.3 97 0.3 N 13 19 7 10 1012.8 1012.6 0.0
22/08:00pm 23.0 26.2 22.3 96 0.5 N 9 15 5 8 1012.3 1012.1 0.0
22/07:30pm 23.7 26.2 21.8 89 1.3 N 11 15 6 8 1011.8 1011.6 0.0
22/07:00pm 24.9 26.3 21.8 83 2.1 N 17 24 9 13 1011.3 1011.1 0.0
22/06:30pm 25.9 27.4 22.0 79 2.6 N 17 30 9 16 1010.9 1010.7 0.0
22/06:00pm 25.4 27.6 21.9 81 2.3 N 13 24 7 13 1010.6 1010.4 0.0
22/05:30pm 25.4 27.2 21.9 81 2.3 N 15 22 8 12 1010.4 1010.2 0.0
22/05:00pm 26.2 28.7 21.8 77 2.9 N 11 17 6 9 1010.4 1010.2 0.0
22/04:30pm 27.1 29.5 22.3 75 3.2 N 13 19 7 10 1010.5 1010.3 0.0
22/04:00pm 28.0 31.3 22.5 72 3.7 NNE 9 13 5 7 1010.7 1010.5 0.0
22/03:30pm 29.7 34.2 23.6 69 4.2 ENE 6 15 3 8 1010.9 1010.7 0.0
22/03:00pm 28.3 32.2 23.0 73 3.6 S 7 11 4 6 1011.3 1011.1 0.0
22/02:30pm 26.0 27.5 21.2 75 3.2 SSE 15 20 8 11 1011.9 1011.7 0.0
22/02:00pm 26.0 26.2 21.4 76 3.1 SSE 22 32 12 17 1012.3 1012.1 0.0
22/01:30pm 26.8 27.6 22.4 77 3.0 SSE 22 30 12 16 1012.8 1012.6 0.0
22/01:00pm 26.7 26.6 22.3 77 3.0 SSE 26 39 14 21 1013.1 1012.9 0.0
22/12:30pm 26.4 25.8 22.0 77 3.0 S 28 37 15 20 1013.4 1013.1 0.0
22/12:00pm 26.2 25.7 21.4 75 3.2 S 26 37 14 20 1013.6 1013.3 0.0
22/11:30am 27.5 25.9 20.8 67 4.4 S 30 43 16 23 1013.3 1013.0 0.0
22/11:21am 28.6 27.5 19.5 58 5.9 S 24 35 13 19 1013.1 1012.9 0.0
22/11:00am 34.5 36.7 21.2 46 9.0 NNW 11 19 6 10 1012.8 1012.6 0.0
22/10:30am 33.9 36.3 23.0 53 7.5 N 15 24 8 13 1013.0 1012.8 0.0
22/10:00am 33.0 35.6 23.3 56 6.7 NNW 15 26 8 14 1013.1 1012.9 0.0
22/09:30am 30.9 34.5 24.3 68 4.6 N 13 17 7 9 1013.1 1012.9 0.0
22/09:00am 29.0 32.3 23.2 71 4.0 NNE 11 17 6 9 1013.1 1012.9 0.0
22/08:30am 28.2 32.3 24.6 81 2.5 N 11 17 6 9 1013.0 1012.8 0.0
22/08:00am 25.5 30.2 25.0 97 0.3 NNE 9 15 5 8 1013.0 1012.8 0.0
22/07:30am 23.9 26.2 23.4 97 0.3 N 17 22 9 12 1012.5 1012.3 0.0
22/07:00am 23.3 27.3 23.1 99 0.1 NNE 7 11 4 6 1012.6 1012.4 0.0
22/06:30am 22.6 24.3 22.4 99 0.1 N 17 26 9 14 1011.8 1011.6 0.0
22/06:00am 22.4 24.0 22.2 99 0.1 N 17 24 9 13 1011.3 1011.1 0.0
22/05:30am 22.6 23.7 22.4 99 0.1 N 20 28 11 15 1010.9 1010.7 0.0
22/05:00am 22.2 23.4 22.2 100 0.0 N 19 26 10 14 1010.7 1010.5 0.0
22/04:30am 21.8 23.5 21.6 99 0.1 N 15 22 8 12 1010.3 1010.1 0.0
22/04:00am 21.7 23.3 21.5 99 0.1 N 15 24 8 13 1010.0 1009.8 0.0
22/03:30am 21.8 23.1 21.6 99 0.1 N 17 26 9 14 1009.7 1009.5 0.0
22/03:00am 22.0 23.4 21.8 99 0.1 N 17 22 9 12 1009.7 1009.5 0.0
22/02:30am 22.2 24.1 22.0 99 0.1 N 15 20 8 11 1009.7 1009.5 0.0
22/02:00am 22.4 24.7 22.1 98 0.2 N 13 20 7 11 1009.6 1009.4 0.0
22/01:30am 22.5 25.6 22.2 98 0.2 N 9 17 5 9 1009.9 1009.7 0.0
22/01:00am 22.5 25.2 22.2 98 0.2 N 11 17 6 9 1010.0 1009.8 0.0
22/12:30am 22.9 26.2 22.6 98 0.2 NNE 9 13 5 7 1010.4 1010.2 0.0
22/12:00am 23.4 26.5 22.9 97 0.3 N 11 19 6 10 1010.8 1010.6 0.0
 
Date/Time
EDT
Temp
°C
App
Temp
°C
Dew
Point
Rel
Hum
%
Delta-T
°C
Wind Press
QNH
hPa
Press
MSL
hPa
Rain
since 9 am
mm
Dir
 
Spd
km/h
Gust
km/h
Spd
kts
Gust
kts
21/11:30pm 23.8 27.2 23.3 97 0.3 NNE 11 17 6 9 1010.9 1010.7 0.0
21/11:00pm 23.9 27.3 23.4 97 0.3 N 11 15 6 8 1010.8 1010.6 0.0
21/10:30pm 24.0 27.1 23.5 97 0.3 N 13 22 7 12 1010.4 1010.2 0.0
21/10:00pm 23.6 25.8 23.3 98 0.2 N 17 26 9 14 1009.9 1009.7 0.0
21/09:30pm 23.7 25.5 23.2 97 0.3 N 19 32 10 17 1009.7 1009.5 0.0
21/09:00pm 23.8 24.7 23.3 97 0.3 N 24 35 13 19 1009.5 1009.3 0.0
21/08:30pm 23.7 25.3 23.2 97 0.3 N 20 32 11 17 1009.4 1009.2 0.0
21/08:00pm 24.0 25.8 23.5 97 0.3 N 20 33 11 18 1009.2 1009.0 0.0
21/07:30pm 24.0 25.0 23.5 97 0.3 N 24 35 13 19 1009.0 1008.8 0.0
21/07:00pm 24.5 23.9 22.7 90 1.2 N 30 44 16 24 1008.6 1008.4 0.0
21/06:50pm 24.7 24.4 22.6 88 1.4 N 28 50 15 27 1008.5 1008.3 0.0
21/06:30pm 25.1 24.2 22.2 84 1.9 N 30 44 16 24 1008.5 1008.3 0.0
21/06:00pm 26.6 26.1 22.2 77 3.0 N 28 46 15 25 1008.0 1007.8 0.0
21/05:54pm 27.0 26.6 22.4 76 3.1 N 28 46 15 25 1008.1 1007.9 0.0
21/05:30pm 26.3 25.4 22.2 78 2.8 N 30 46 16 25 1007.8 1007.6 0.0
21/05:00pm 27.5 26.6 22.2 73 3.6 N 30 44 16 24 1007.8 1007.6 0.0
21/04:30pm 28.4 27.5 22.2 69 4.2 N 30 48 16 26 1008.1 1007.9 0.0
21/04:00pm 29.2 28.1 21.7 64 5.1 N 30 50 16 27 1008.1 1007.9 0.0
21/03:49pm 29.7 29.1 21.9 63 5.3 N 28 50 15 27 1008.3 1008.1 0.0
21/03:30pm 30.2 29.9 22.6 63 5.2 N 28 39 15 21 1008.6 1008.4 0.0
21/03:04pm 29.6 28.0 21.5 61 5.4 N 32 50 17 27 1008.7 1008.5 0.0
21/03:00pm 30.9 29.7 22.2 59 5.9 N 32 48 17 26 1008.7 1008.5 0.0
21/02:35pm 30.8 30.4 22.4 61 5.7 N 28 50 15 27 1009.3 1009.1 0.0
21/02:30pm 31.5 31.9 23.1 61 5.8 N 26 43 14 23 1009.5 1009.3 0.0
21/02:14pm 30.9 31.1 23.5 64 5.1 NNE 28 46 15 25 1009.8 1009.6 0.0
21/02:00pm 30.6 29.9 22.5 62 5.5 NNE 30 44 16 24 1010.1 1009.9 0.0

Other Formats:

Comma delimited format used in spreadsheet applications
http://www.bom.gov.au/fwo/IDN60801/IDN60801.94598.axf

JavaScript Object Notation format (JSON) in row-major order
http://www.bom.gov.au/fwo/IDN60801/IDN60801.94598.json